Aérodrome :
LOGIN :

S'inscrire | Disclaimer

   EN    FR    IT 

 










Légende :    VFR   VFR Marginal   IFR   IFR Intensif   IFR Très Intensif
Visi : 
Plafond : 
>= 8 km
>= 3000ft
5 à 8 km
1000 à 3000 ft
1500m à 5 km
500 à 1000 ft
800 à 1500m
200 à 500 ft
< 800m
< 200 ft
Symboles :   Orages  Brouillard  Fortes neiges  Fortes précipitations  Vent > 20 kt
SIGMETs :   Divers  Orages  Givrage  Turbulence  Onde Orograph.  Cendres Volcan.






- Altitude de l'aérodrome : 3006 ft
- Code IATA : LEN


LELN - Leon

DERNIER METAR :
  • 180900Z 20004KT 150V260 CAVOK 06/M01 Q1023

METARs EXPIRÉS :
  • 180830Z 23004KT 170V280 CAVOK 05/M02 Q1023
  • 180800Z 21004KT 170V280 CAVOK 04/M01 Q1023
  • 180730Z 25005KT 220V280 CAVOK 03/M00 Q1023
  • 180700Z 26005KT 230V290 CAVOK 02/M00 Q1023
  • 180630Z 26003KT 250V330 CAVOK M01/M02 Q1023

TAF TAF LELN
Valide du 18 à 09h jusqu'au 19 à 09h UTC


180800Z 1809/1909 VRB04KT CAVOK TX18/1816Z TN03/1906Z



MET'MAP, la Météo Aéronautique d'un coup d'oeil ! - Copyright ORBIFLY Décembre 2007 - Disclaimer

ORBIFLY MET'MAP TEAM :

Programmation & Développement : Alexandra Zaïnal
Sur une idée originale de : Baudouin d'Aumeries
Assistance à la programmation : Marc-Olivier Méhu
Soutien technique & logistique : Manuel Goepfert

Contact : metmap@orbifly.com




SOURCES & CREDITS :

   NOAA